Time;durP1;ratioP1;P1;durP2;ratioP2;P2;SDS_P1;SDS_P2;PMS_P1;PMS_P2;Temp;Humidity;BMP_temperature;BMP_pressure;BME280_temperature;BME280_humidity;BME280_pressure;Samples;Min_cycle;Max_cycle;Signal;HPM_P1;HPM_P2
2024/01/17 00:00:55;;;;;;;12.03;8.90;;;-3.80;99.90;;;;;;5120467;28;20449;-64
2024/01/17 00:03:23;;;;;;;14.27;9.60;;;-3.80;99.90;;;;;;5120373;28;20462;-65
2024/01/17 00:05:50;;;;;;;14.53;9.40;;;-3.90;99.90;;;;;;5120189;28;20458;-64
2024/01/17 00:08:17;;;;;;;14.90;9.83;;;-3.90;99.90;;;;;;5119653;28;20846;-64
2024/01/17 00:10:46;;;;;;;14.57;10.10;;;-3.80;99.90;;;;;;5119974;28;20467;-65
2024/01/17 00:13:14;;;;;;;13.60;9.23;;;-3.70;99.90;;;;;;5120565;28;20455;-65
2024/01/17 00:15:42;;;;;;;13.23;8.70;;;-3.80;99.90;;;;;;5120263;27;20433;-64
2024/01/17 00:18:09;;;;;;;12.10;8.60;;;-3.90;99.90;;;;;;5119857;28;20466;-63
2024/01/17 00:20:37;;;;;;;14.50;9.27;;;-3.90;99.90;;;;;;5119517;28;20491;-64
2024/01/17 00:23:04;;;;;;;13.20;9.73;;;-3.80;99.90;;;;;;5120522;28;20818;-64
2024/01/17 00:25:32;;;;;;;12.20;9.17;;;-3.80;1.00;;;;;;5120415;28;20459;-64
2024/01/17 00:28:00;;;;;;;14.47;9.97;;;-3.70;1.00;;;;;;5119919;28;20434;-63
2024/01/17 00:30:28;;;;;;;11.90;9.63;;;-3.80;99.90;;;;;;5120184;28;20558;-63
2024/01/17 00:32:56;;;;;;;16.80;8.77;;;-3.80;99.90;;;;;;5120080;28;20467;-63
2024/01/17 00:35:25;;;;;;;12.07;8.57;;;-3.90;99.90;;;;;;5120427;28;20462;-63
2024/01/17 00:37:52;;;;;;;16.23;9.80;;;-4.00;99.90;;;;;;5120409;28;20770;-63
2024/01/17 00:40:19;;;;;;;14.33;9.37;;;-4.00;99.90;;;;;;5120300;28;20434;-63
2024/01/17 00:42:47;;;;;;;14.50;8.80;;;-4.00;99.90;;;;;;5120775;27;20505;-63
2024/01/17 00:45:16;;;;;;;15.80;8.80;;;-4.00;99.90;;;;;;5119618;28;20509;-63
2024/01/17 00:47:43;;;;;;;14.07;9.73;;;-4.00;99.90;;;;;;5118997;28;20885;-62
2024/01/17 00:50:11;;;;;;;12.73;8.40;;;-4.00;99.90;;;;;;5118254;28;20440;-63
2024/01/17 00:52:38;;;;;;;13.00;8.03;;;-4.10;45.90;;;;;;5118458;28;20822;-63
2024/01/17 00:55:06;;;;;;;12.10;8.53;;;-4.10;99.90;;;;;;5118632;28;20479;-63
2024/01/17 00:57:34;;;;;;;11.40;8.70;;;-4.10;99.90;;;;;;5119100;28;20555;-63
2024/01/17 01:00:02;;;;;;;12.03;7.93;;;-4.10;99.90;;;;;;5118275;28;20564;-63
2024/01/17 01:02:30;;;;;;;14.17;9.30;;;-4.00;99.90;;;;;;5118572;28;20471;-63
2024/01/17 01:04:58;;;;;;;15.77;8.43;;;-4.00;1.00;;;;;;5118383;28;20513;-63
2024/01/17 01:07:25;;;;;;;12.30;8.20;;;-3.90;1.00;;;;;;5118720;28;20466;-64
2024/01/17 01:09:53;;;;;;;11.43;8.10;;;-4.00;99.90;;;;;;5117745;28;20491;-63
2024/01/17 01:12:20;;;;;;;11.87;8.23;;;-3.90;99.90;;;;;;5118490;28;20478;-64
2024/01/17 01:14:47;;;;;;;12.40;8.20;;;-4.00;99.90;;;;;;5118167;28;20456;-64
2024/01/17 01:17:14;;;;;;;14.30;9.40;;;-4.00;99.90;;;;;;5118510;28;20518;-64
2024/01/17 01:19:43;;;;;;;11.27;8.40;;;-4.00;1.00;;;;;;5118246;28;20457;-64
2024/01/17 01:22:10;;;;;;;9.60;7.60;;;-4.00;1.00;;;;;;5117454;27;20460;-64
2024/01/17 01:24:37;;;;;;;15.37;8.97;;;-4.00;1.00;;;;;;5117420;28;20498;-64
2024/01/17 01:27:05;;;;;;;14.60;8.37;;;-4.00;1.00;;;;;;5118208;28;20460;-64
2024/01/17 01:29:32;;;;;;;13.20;9.00;;;-4.10;99.90;;;;;;5118166;28;20933;-65
2024/01/17 01:31:59;;;;;;;12.20;8.63;;;-4.10;99.90;;;;;;5117492;28;20461;-65
2024/01/17 01:34:27;;;;;;;18.10;8.63;;;-4.10;1.00;;;;;;5117797;28;20881;-65
2024/01/17 01:36:55;;;;;;;9.90;7.87;;;-4.10;1.00;;;;;;5117803;28;20431;-65
2024/01/17 01:39:22;;;;;;;10.70;7.87;;;-4.00;1.00;;;;;;5118184;28;20549;-65
2024/01/17 01:41:50;;;;;;;12.83;8.60;;;-4.00;1.00;;;;;;5117526;28;20477;-65
2024/01/17 01:44:17;;;;;;;12.87;8.80;;;-4.00;1.00;;;;;;5117578;28;20491;-66
2024/01/17 01:46:46;;;;;;;10.47;7.97;;;-4.00;1.00;;;;;;5117717;28;20938;-66
2024/01/17 01:49:15;;;;;;;10.30;8.47;;;-4.10;99.90;;;;;;5118115;28;20517;-66
2024/01/17 01:51:45;;;;;;;13.20;8.70;;;-4.10;99.90;;;;;;5117816;28;20538;-66
2024/01/17 01:54:15;;;;;;;11.57;9.30;;;-4.10;99.90;;;;;;5118001;28;20453;-66
2024/01/17 01:56:43;;;;;;;12.97;9.20;;;-4.20;99.90;;;;;;5117183;28;20504;-66
2024/01/17 01:59:11;;;;;;;10.70;8.20;;;-4.10;99.90;;;;;;5117902;28;20434;-67
2024/01/17 02:01:39;;;;;;;11.23;8.03;;;-4.10;1.00;;;;;;5117919;28;20545;-66
2024/01/17 02:04:07;;;;;;;15.17;8.27;;;-4.10;1.00;;;;;;5120463;28;20553;-67
2024/01/17 02:06:35;;;;;;;14.87;9.03;;;-4.00;1.00;;;;;;5121603;28;20466;-67
2024/01/17 02:09:03;;;;;;;16.07;9.23;;;-4.00;1.00;;;;;;5121476;28;20458;-67
2024/01/17 02:11:32;;;;;;;12.03;9.43;;;-4.00;1.00;;;;;;5122048;28;20482;-67
2024/01/17 02:14:00;;;;;;;13.13;8.80;;;-4.00;1.00;;;;;;5121520;28;20546;-67
2024/01/17 02:16:28;;;;;;;16.03;8.60;;;-4.00;1.00;;;;;;5121968;28;20749;-67
2024/01/17 02:18:55;;;;;;;12.27;8.27;;;-4.00;1.00;;;;;;5121575;28;20512;-66
2024/01/17 02:21:22;;;;;;;17.03;9.87;;;-4.00;1.00;;;;;;5121953;28;20430;-67
2024/01/17 02:23:51;;;;;;;11.87;9.17;;;-4.00;1.00;;;;;;5121474;28;20463;-67
2024/01/17 02:26:19;;;;;;;15.40;9.47;;;-4.00;87.40;;;;;;5121481;28;20554;-66
2024/01/17 02:28:46;;;;;;;14.43;9.70;;;-3.90;99.90;;;;;;5121843;28;20747;-67
2024/01/17 02:31:14;;;;;;;20.53;8.90;;;-3.90;1.00;;;;;;5121525;28;20896;-67
2024/01/17 02:33:44;;;;;;;13.57;10.07;;;-3.80;99.90;;;;;;5121769;28;20506;-67
2024/01/17 02:36:11;;;;;;;14.07;9.93;;;-3.80;99.90;;;;;;5119445;28;20491;-67
2024/01/17 02:38:39;;;;;;;13.87;9.67;;;-3.80;99.90;;;;;;5121067;28;20530;-67
2024/01/17 02:41:09;;;;;;;13.83;9.80;;;-3.80;99.90;;;;;;5120770;28;20558;-67
2024/01/17 02:43:36;;;;;;;13.90;9.70;;;-3.80;99.90;;;;;;5120994;28;20498;-67
2024/01/17 02:46:03;;;;;;;11.07;8.73;;;-3.80;99.90;;;;;;5120722;28;20948;-67
2024/01/17 02:48:30;;;;;;;14.10;9.30;;;-3.80;99.90;;;;;;5120985;28;20546;-67
2024/01/17 02:50:57;;;;;;;13.87;9.80;;;-3.70;1.00;;;;;;5120912;28;20545;-66
2024/01/17 02:53:25;;;;;;;12.50;9.20;;;-3.70;1.00;;;;;;5120938;28;20459;-67
2024/01/17 02:55:52;;;;;;;15.67;10.47;;;-3.70;1.00;;;;;;5120720;28;20873;-66
2024/01/17 02:58:20;;;;;;;12.93;8.57;;;-3.70;1.00;;;;;;5120783;28;20545;-66
2024/01/17 03:00:48;;;;;;;12.13;9.73;;;-3.70;99.90;;;;;;5120762;28;20550;-66
2024/01/17 03:03:15;;;;;;;15.50;10.57;;;-3.70;99.90;;;;;;5120850;28;20451;-66
2024/01/17 03:05:42;;;;;;;15.23;10.37;;;-3.70;99.90;;;;;;5120540;28;20483;-66
2024/01/17 03:08:09;;;;;;;13.80;10.30;;;-3.70;1.00;;;;;;5120243;28;20578;-66
2024/01/17 03:10:36;;;;;;;14.50;9.90;;;-3.70;1.00;;;;;;5120507;27;20550;-66
2024/01/17 03:13:04;;;;;;;15.87;10.50;;;-3.70;1.00;;;;;;5125834;27;20554;-66
2024/01/17 03:15:32;;;;;;;14.63;9.60;;;-3.70;99.90;;;;;;5138683;27;20538;-66
2024/01/17 03:18:01;;;;;;;15.57;10.90;;;-3.70;99.90;;;;;;5099926;28;20459;-66
2024/01/17 03:20:28;;;;;;;16.53;10.33;;;-3.70;1.00;;;;;;5100010;28;20517;-67
2024/01/17 03:22:56;;;;;;;13.53;9.07;;;-3.70;1.00;;;;;;5100032;28;20435;-66
2024/01/17 03:25:23;;;;;;;15.60;9.50;;;-3.70;1.00;;;;;;5100062;28;20928;-66
2024/01/17 03:27:50;;;;;;;14.30;10.00;;;-3.70;1.00;;;;;;5099941;28;20438;-66
2024/01/17 03:30:17;;;;;;;13.47;9.87;;;-3.70;1.00;;;;;;5099798;28;20476;-67
2024/01/17 03:32:46;;;;;;;13.10;9.90;;;-3.60;1.00;;;;;;5099614;28;20563;-67
2024/01/17 03:35:13;;;;;;;14.63;9.80;;;-3.60;1.00;;;;;;5099693;28;20454;-68
2024/01/17 03:37:40;;;;;;;14.87;9.73;;;-3.60;1.00;;;;;;5102101;28;21003;-69
2024/01/17 03:40:08;;;;;;;14.47;10.10;;;-3.90;23.70;;;;;;5101323;28;20855;-69
2024/01/17 03:42:35;;;;;;;15.30;10.33;;;-3.90;6.50;;;;;;5102211;28;20461;-69
2024/01/17 03:45:02;;;;;;;14.40;11.17;;;-4.00;1.00;;;;;;5102183;28;20550;-69
2024/01/17 03:47:29;;;;;;;14.90;9.87;;;-4.20;1.00;;;;;;5101753;28;20467;-69
2024/01/17 03:49:58;;;;;;;19.30;12.00;;;-4.20;99.90;;;;;;5101787;28;20475;-69
2024/01/17 03:52:25;;;;;;;14.60;10.80;;;-4.20;14.10;;;;;;5101112;28;20467;-69
2024/01/17 03:54:52;;;;;;;14.97;10.97;;;-4.30;99.90;;;;;;5101734;28;20459;-69
2024/01/17 03:57:19;;;;;;;16.90;10.90;;;-4.30;1.00;;;;;;5101291;28;20461;-70
2024/01/17 03:59:46;;;;;;;15.20;10.37;;;-4.30;15.30;;;;;;5100815;28;20872;-70
2024/01/17 04:02:14;;;;;;;15.20;11.20;;;-4.20;91.50;;;;;;5100043;28;20460;-70
2024/01/17 04:04:41;;;;;;;14.87;11.20;;;-4.20;1.00;;;;;;5099768;28;20480;-69
2024/01/17 04:07:10;;;;;;;14.30;10.87;;;-4.30;1.00;;;;;;5100183;28;20543;-69
2024/01/17 04:09:37;;;;;;;17.07;11.33;;;-4.30;99.90;;;;;;5098325;28;20477;-70
2024/01/17 04:12:05;;;;;;;14.33;11.50;;;-4.30;1.00;;;;;;5097211;28;20475;-69
2024/01/17 04:14:33;;;;;;;15.03;10.80;;;-4.30;1.00;;;;;;5097581;28;20457;-69
2024/01/17 04:17:00;;;;;;;14.47;10.20;;;-4.30;1.00;;;;;;5097798;28;20437;-69
2024/01/17 04:19:27;;;;;;;18.17;11.80;;;-4.30;99.90;;;;;;5097838;28;20756;-69
2024/01/17 04:21:56;;;;;;;14.50;10.90;;;-4.20;99.90;;;;;;5097564;28;20555;-69
2024/01/17 04:24:25;;;;;;;13.37;10.50;;;-4.30;99.90;;;;;;5096965;28;20559;-69
2024/01/17 04:26:55;;;;;;;14.43;11.30;;;-4.20;99.90;;;;;;5096530;28;20880;-69
2024/01/17 04:29:22;;;;;;;15.40;11.17;;;-4.10;99.90;;;;;;5097239;28;20898;-68
2024/01/17 04:31:49;;;;;;;15.47;11.10;;;-4.00;1.00;;;;;;5096762;28;20460;-68
2024/01/17 04:34:17;;;;;;;16.67;11.57;;;-4.10;99.90;;;;;;5096988;28;20466;-68
2024/01/17 04:36:44;;;;;;;14.77;10.80;;;-4.20;1.00;;;;;;5096853;28;20426;-68
2024/01/17 04:39:11;;;;;;;18.27;11.40;;;-4.30;1.00;;;;;;5096870;28;20465;-68
2024/01/17 04:41:40;;;;;;;13.30;11.03;;;-4.20;1.00;;;;;;5098030;28;20453;-68
2024/01/17 04:44:07;;;;;;;17.20;11.50;;;-4.20;1.00;;;;;;5098063;28;20467;-67
2024/01/17 04:46:37;;;;;;;19.40;12.60;;;-4.10;1.00;;;;;;5098061;28;20580;-67
2024/01/17 04:49:04;;;;;;;15.77;13.30;;;-4.10;1.00;;;;;;5098385;28;20462;-67
2024/01/17 04:51:31;;;;;;;17.40;12.40;;;-4.00;1.00;;;;;;5097872;28;20495;-67
2024/01/17 04:53:59;;;;;;;16.80;11.87;;;-3.90;1.00;;;;;;5097558;28;20435;-67
2024/01/17 04:56:26;;;;;;;18.40;12.67;;;-4.00;99.90;;;;;;5097669;28;20453;-66
2024/01/17 04:58:55;;;;;;;19.30;13.80;;;-4.00;1.00;;;;;;5098103;28;20457;-66
2024/01/17 05:01:22;;;;;;;19.60;11.47;;;-3.90;99.90;;;;;;5098204;28;20457;-66
2024/01/17 05:03:49;;;;;;;21.27;12.43;;;-4.00;99.90;;;;;;5097881;28;20779;-66
2024/01/17 05:06:16;;;;;;;14.20;10.40;;;-3.90;1.00;;;;;;5097454;28;20467;-65
2024/01/17 05:08:44;;;;;;;15.10;10.40;;;-3.90;1.00;;;;;;5097931;28;20507;-64
2024/01/17 05:11:11;;;;;;;16.47;11.20;;;-3.70;1.00;;;;;;5096254;28;20455;-64
2024/01/17 05:13:39;;;;;;;17.30;11.03;;;-3.60;1.00;;;;;;5131910;27;20505;-63
2024/01/17 05:16:09;;;;;;;13.93;10.53;;;-3.70;99.90;;;;;;5138342;27;20839;-63
2024/01/17 05:18:36;;;;;;;14.90;10.20;;;-3.70;1.00;;;;;;5138209;27;20461;-63
2024/01/17 05:21:04;;;;;;;14.67;10.20;;;-3.90;1.00;;;;;;5138235;27;20461;-63
2024/01/17 05:23:31;;;;;;;17.40;10.47;;;-3.90;99.90;;;;;;5138690;27;20549;-63
2024/01/17 05:25:58;;;;;;;16.50;10.50;;;-3.90;99.90;;;;;;5138152;27;20495;-63
2024/01/17 05:28:25;;;;;;;15.37;10.50;;;-3.80;99.90;;;;;;5138456;27;20459;-63
2024/01/17 05:30:52;;;;;;;15.30;9.83;;;-3.80;99.90;;;;;;5138234;27;20541;-62
2024/01/17 05:33:21;;;;;;;16.37;10.27;;;-3.70;99.90;;;;;;5138648;27;20546;-62
2024/01/17 05:35:48;;;;;;;13.50;10.00;;;-3.60;99.90;;;;;;5118406;28;20835;-62
2024/01/17 05:38:16;;;;;;;19.43;10.70;;;-3.70;33.70;;;;;;5116430;28;20566;-62
2024/01/17 05:40:43;;;;;;;15.23;9.77;;;-3.70;73.50;;;;;;5117417;28;20462;-62
2024/01/17 05:43:11;;;;;;;15.73;10.00;;;-3.90;91.70;;;;;;5117840;28;20529;-62
2024/01/17 05:45:38;;;;;;;16.17;11.53;;;-3.90;1.00;;;;;;5116494;28;20536;-62
2024/01/17 05:48:06;;;;;;;13.40;10.10;;;-3.70;1.00;;;;;;5117282;28;20844;-62
2024/01/17 05:50:34;;;;;;;16.93;10.70;;;-3.50;1.00;;;;;;5117442;28;20903;-62
2024/01/17 05:53:01;;;;;;;16.47;10.77;;;-3.50;1.00;;;;;;5117550;28;20518;-62
2024/01/17 05:55:29;;;;;;;17.27;10.37;;;-3.40;99.90;;;;;;5117477;28;20462;-62
2024/01/17 05:57:56;;;;;;;15.47;10.70;;;-3.30;1.00;;;;;;5116944;28;20439;-62
2024/01/17 06:00:24;;;;;;;17.80;10.00;;;-3.30;1.00;;;;;;5117415;28;20430;-62
2024/01/17 06:02:51;;;;;;;19.17;12.80;;;-3.30;1.00;;;;;;5117347;28;20547;-62
2024/01/17 06:05:18;;;;;;;28.67;15.80;;;-3.30;1.00;;;;;;5117680;28;20491;-62
2024/01/17 06:07:47;;;;;;;45.73;23.33;;;-3.30;1.00;;;;;;5117437;28;20592;-62
2024/01/17 06:10:15;;;;;;;28.83;14.53;;;-3.20;1.00;;;;;;5116578;28;20479;-62
2024/01/17 06:12:42;;;;;;;30.77;18.57;;;-3.20;99.90;;;;;;5116422;28;20459;-62
2024/01/17 06:15:11;;;;;;;18.60;13.63;;;-3.10;99.90;;;;;;5117281;28;20484;-62
2024/01/17 06:17:38;;;;;;;16.53;11.93;;;-3.20;99.90;;;;;;5117332;28;20885;-62
2024/01/17 06:20:09;;;;;;;15.77;10.77;;;-3.10;99.90;;;;;;5116572;28;20430;-62
2024/01/17 06:22:37;;;;;;;16.17;10.33;;;-3.00;98.80;;;;;;5116991;28;20445;-62
2024/01/17 06:25:07;;;;;;;15.17;9.57;;;-3.00;29.50;;;;;;5117271;28;20845;-62
2024/01/17 06:27:35;;;;;;;14.90;9.73;;;-3.00;1.00;;;;;;5116084;28;20513;-62
2024/01/17 06:30:02;;;;;;;14.27;9.37;;;-3.00;1.00;;;;;;5117134;28;20456;-62
2024/01/17 06:32:30;;;;;;;18.47;9.57;;;-2.90;1.00;;;;;;5116958;28;20426;-62
2024/01/17 06:34:57;;;;;;;19.23;9.90;;;-2.90;1.00;;;;;;5115512;28;20769;-62
2024/01/17 06:37:24;;;;;;;14.60;8.80;;;-2.90;99.90;;;;;;5126682;28;20545;-63
2024/01/17 06:39:52;;;;;;;12.53;9.23;;;-2.90;99.90;;;;;;5119782;27;20451;-62
2024/01/17 06:42:20;;;;;;;10.93;8.57;;;-2.70;1.00;;;;;;5113465;28;20488;-61
2024/01/17 06:44:47;;;;;;;12.77;9.50;;;-2.80;99.90;;;;;;5112747;28;20543;-62
2024/01/17 06:47:15;;;;;;;12.80;9.20;;;-2.70;99.90;;;;;;5113750;28;20536;-61
2024/01/17 06:49:43;;;;;;;14.20;10.50;;;-2.60;99.90;;;;;;5117449;28;20455;-62
2024/01/17 06:52:10;;;;;;;11.60;8.13;;;-2.60;99.90;;;;;;5100106;28;20537;-62
2024/01/17 06:54:37;;;;;;;11.40;8.00;;;-2.40;99.90;;;;;;5119395;28;20451;-62
2024/01/17 06:57:07;;;;;;;14.80;9.33;;;-2.50;99.90;;;;;;5118457;28;20422;-62
2024/01/17 06:59:35;;;;;;;15.13;11.30;;;-2.50;99.90;;;;;;5118803;28;20782;-61
2024/01/17 07:02:03;;;;;;;15.43;9.73;;;-2.50;99.90;;;;;;5117776;28;20484;-63
2024/01/17 07:04:30;;;;;;;12.60;8.23;;;-2.50;99.90;;;;;;5117404;28;20455;-60
2024/01/17 07:06:58;;;;;;;13.47;9.00;;;-2.50;99.90;;;;;;5117236;27;20493;-63
2024/01/17 07:09:26;;;;;;;14.57;8.47;;;-2.40;99.90;;;;;;5116835;28;20490;-59
2024/01/17 07:11:53;;;;;;;14.33;8.70;;;-2.50;99.90;;;;;;5113930;28;20442;-59
2024/01/17 07:14:21;;;;;;;13.23;9.03;;;-2.50;99.90;;;;;;5115990;28;20455;-63
2024/01/17 07:16:50;;;;;;;17.50;8.67;;;-2.50;99.90;;;;;;5117609;28;20528;-63
2024/01/17 07:19:17;;;;;;;29.17;14.70;;;-2.60;99.90;;;;;;5117130;28;20813;-63
2024/01/17 07:21:44;;;;;;;13.23;8.43;;;-2.60;99.90;;;;;;5118919;28;20463;-61
2024/01/17 07:24:12;;;;;;;14.60;9.63;;;-2.50;99.90;;;;;;5117853;28;20460;-63
2024/01/17 07:26:40;;;;;;;18.07;9.67;;;-2.50;99.90;;;;;;5119871;28;20574;-63
2024/01/17 07:29:07;;;;;;;15.53;9.73;;;-2.60;99.90;;;;;;5119902;28;20811;-64
2024/01/17 07:31:34;;;;;;;14.17;10.03;;;-2.50;99.90;;;;;;5120094;28;20884;-63
2024/01/17 07:34:03;;;;;;;14.77;11.00;;;-2.50;99.90;;;;;;5119358;28;20755;-63
2024/01/17 07:36:30;;;;;;;13.67;9.30;;;-2.50;99.90;;;;;;5118014;28;20895;-63
2024/01/17 07:38:57;;;;;;;15.50;9.53;;;-2.50;99.90;;;;;;5129167;27;20464;-63
2024/01/17 07:41:25;;;;;;;17.63;9.37;;;-2.50;99.90;;;;;;5139950;27;20458;-63
2024/01/17 07:43:52;;;;;;;13.10;9.20;;;-2.60;99.90;;;;;;5139135;27;20546;-60
2024/01/17 07:46:20;;;;;;;17.70;9.97;;;-2.60;99.90;;;;;;5138879;27;20595;-63
2024/01/17 07:48:47;;;;;;;13.57;9.63;;;-2.60;99.90;;;;;;5139414;27;20514;-63
2024/01/17 07:51:16;;;;;;;13.67;8.60;;;-2.60;99.90;;;;;;5139544;27;20511;-63
2024/01/17 07:53:43;;;;;;;14.43;8.60;;;-2.60;99.90;;;;;;5140162;27;20807;-63
2024/01/17 07:56:11;;;;;;;10.70;8.30;;;-2.50;99.90;;;;;;5135219;27;20482;-64
2024/01/17 07:58:38;;;;;;;14.03;9.30;;;-2.50;99.90;;;;;;5118794;28;20468;-64
2024/01/17 08:01:06;;;;;;;12.57;8.40;;;-2.40;99.90;;;;;;5117859;28;20461;-64
2024/01/17 08:03:33;;;;;;;12.27;9.47;;;-2.40;99.90;;;;;;5125742;27;20896;-64
2024/01/17 08:06:01;;;;;;;16.20;9.77;;;-2.40;99.90;;;;;;5139592;27;20489;-64
2024/01/17 08:08:30;;;;;;;14.80;8.40;;;-2.40;99.90;;;;;;5139879;27;20531;-63
2024/01/17 08:10:57;;;;;;;14.10;9.97;;;-2.30;99.90;;;;;;5140042;27;20459;-64
2024/01/17 08:13:25;;;;;;;15.37;9.90;;;-2.30;99.90;;;;;;5140024;27;20456;-64
2024/01/17 08:15:55;;;;;;;10.37;8.30;;;-2.30;99.90;;;;;;5139282;27;20507;-64
2024/01/17 08:18:23;;;;;;;12.03;9.20;;;-2.30;99.90;;;;;;5139439;27;20486;-64
2024/01/17 08:20:51;;;;;;;18.13;9.73;;;-2.30;99.90;;;;;;5139188;27;20460;-64
2024/01/17 08:23:18;;;;;;;12.93;8.93;;;-2.20;99.90;;;;;;5138706;27;20434;-63
2024/01/17 08:25:47;;;;;;;15.33;8.97;;;-2.20;99.90;;;;;;5137923;27;20765;-59
2024/01/17 08:28:14;;;;;;;12.87;8.67;;;-2.10;99.90;;;;;;5138480;27;20476;-64
2024/01/17 08:30:42;;;;;;;10.90;8.30;;;-2.10;99.90;;;;;;5120623;27;20542;-64
2024/01/17 08:33:09;;;;;;;13.43;9.93;;;-2.00;99.90;;;;;;5137796;27;20856;-64
2024/01/17 08:35:37;;;;;;;12.77;9.73;;;-2.10;99.90;;;;;;5138313;27;20454;-65
2024/01/17 08:38:04;;;;;;;12.77;9.70;;;-2.00;99.90;;;;;;5138606;27;20504;-65
2024/01/17 08:40:33;;;;;;;12.47;9.03;;;-2.00;99.90;;;;;;5138076;27;20430;-64
2024/01/17 08:43:02;;;;;;;13.60;8.83;;;-1.90;99.90;;;;;;5139341;27;20869;-65
2024/01/17 08:45:30;;;;;;;13.20;9.20;;;-1.90;99.90;;;;;;5138673;27;20512;-65
2024/01/17 08:47:57;;;;;;;13.57;9.27;;;-2.00;99.90;;;;;;5138922;27;20486;-65
2024/01/17 08:50:26;;;;;;;14.20;8.97;;;-1.90;99.90;;;;;;5139264;27;20854;-65
2024/01/17 08:52:53;;;;;;;14.57;9.47;;;-2.00;99.90;;;;;;5138809;27;20492;-66
2024/01/17 08:55:21;;;;;;;15.07;8.83;;;-2.00;99.90;;;;;;5139353;27;20472;-66
2024/01/17 08:57:48;;;;;;;17.70;10.40;;;-2.00;99.90;;;;;;5138272;27;20455;-65
2024/01/17 09:00:18;;;;;;;14.37;8.77;;;-1.90;99.90;;;;;;5137067;27;20655;-66
2024/01/17 09:02:45;;;;;;;15.80;9.13;;;-1.90;99.90;;;;;;5137332;27;20429;-65
2024/01/17 09:05:13;;;;;;;14.50;10.00;;;-1.90;99.90;;;;;;5137469;27;20466;-65
2024/01/17 09:07:43;;;;;;;15.30;9.80;;;-1.90;99.90;;;;;;5137300;27;20494;-66
2024/01/17 09:10:13;;;;;;;19.37;11.00;;;-1.80;99.90;;;;;;5136391;27;20927;-65
2024/01/17 09:12:40;;;;;;;12.67;9.30;;;-1.80;99.90;;;;;;5137562;27;20567;-67
2024/01/17 09:15:08;;;;;;;16.60;9.30;;;-1.70;99.90;;;;;;5138855;27;20540;-67
2024/01/17 09:17:37;;;;;;;18.27;10.27;;;-1.70;99.90;;;;;;5138156;27;20827;-66
2024/01/17 09:20:06;;;;;;;17.40;10.20;;;-1.70;99.90;;;;;;5137855;27;20455;-67
2024/01/17 09:22:33;;;;;;;15.07;10.47;;;-1.70;99.90;;;;;;5138460;27;20754;-67
2024/01/17 09:25:01;;;;;;;17.67;10.43;;;-1.70;99.90;;;;;;5138182;27;20458;-66
2024/01/17 09:27:28;;;;;;;13.37;9.77;;;-1.60;99.90;;;;;;5138668;27;20488;-66
2024/01/17 09:29:56;;;;;;;15.50;10.00;;;-1.70;99.90;;;;;;5138229;27;20455;-67
2024/01/17 09:32:24;;;;;;;16.17;10.10;;;-1.60;99.90;;;;;;5133632;27;20470;-67
2024/01/17 09:34:54;;;;;;;13.33;9.20;;;-1.60;99.90;;;;;;5115361;28;20551;-66
2024/01/17 09:37:21;;;;;;;11.53;9.10;;;-1.70;99.90;;;;;;5115156;28;20517;-67
2024/01/17 09:39:49;;;;;;;14.00;10.00;;;-1.60;99.90;;;;;;5112828;28;20471;-67
2024/01/17 09:42:16;;;;;;;16.07;10.67;;;-1.60;99.90;;;;;;5115395;28;20474;-67
2024/01/17 09:44:44;;;;;;;14.37;10.30;;;-1.60;99.90;;;;;;5116575;28;20555;-67
2024/01/17 09:47:16;;;;;;;13.50;10.57;;;-1.50;99.90;;;;;;5116491;28;20491;-68
2024/01/17 09:49:44;;;;;;;16.30;10.00;;;-1.50;99.90;;;;;;5117130;28;20547;-68
2024/01/17 09:52:15;;;;;;;13.40;9.37;;;-1.50;99.90;;;;;;5116713;28;20451;-67
2024/01/17 09:54:43;;;;;;;16.30;11.27;;;-1.40;99.90;;;;;;5117112;28;20528;-68
2024/01/17 09:57:20;;;;;;;18.63;10.40;;;-1.40;99.90;;;;;;5117539;28;20861;-68
2024/01/17 09:59:51;;;;;;;14.80;9.90;;;-1.40;99.90;;;;;;5117189;28;20463;-68
2024/01/17 10:02:20;;;;;;;15.03;10.00;;;-1.40;99.90;;;;;;5117056;28;20875;-68
2024/01/17 10:04:50;;;;;;;17.10;10.80;;;-1.40;99.90;;;;;;5116686;28;20463;-67
2024/01/17 10:07:20;;;;;;;13.20;9.67;;;-1.30;99.90;;;;;;5116977;28;20497;-67
2024/01/17 10:09:47;;;;;;;13.97;9.87;;;-1.30;99.90;;;;;;5116681;28;20519;-68
2024/01/17 10:12:18;;;;;;;16.73;10.43;;;-1.20;99.90;;;;;;5116361;28;20459;-68
2024/01/17 10:14:46;;;;;;;16.93;9.43;;;-1.10;99.90;;;;;;5116589;28;20468;-68
2024/01/17 10:17:13;;;;;;;14.50;9.80;;;-1.00;99.90;;;;;;5116898;28;20863;-67
2024/01/17 10:19:41;;;;;;;17.40;10.27;;;-1.10;99.90;;;;;;5116881;28;20464;-68
2024/01/17 10:22:10;;;;;;;15.37;10.93;;;-1.00;99.90;;;;;;5116985;28;20481;-68
2024/01/17 10:24:41;;;;;;;14.60;10.23;;;-1.00;99.90;;;;;;5117774;28;20816;-67
2024/01/17 10:27:08;;;;;;;13.63;10.10;;;-1.00;99.90;;;;;;5119996;28;20787;-67
2024/01/17 10:29:38;;;;;;;13.30;10.03;;;-1.00;99.90;;;;;;5121066;28;20460;-67
2024/01/17 10:32:06;;;;;;;17.43;11.00;;;-1.00;99.90;;;;;;5119079;28;20504;-67
2024/01/17 10:34:34;;;;;;;15.07;10.50;;;-1.00;99.90;;;;;;5119483;28;20501;-67
2024/01/17 10:37:05;;;;;;;13.17;9.67;;;-0.90;99.90;;;;;;5119727;28;20764;-67
2024/01/17 10:39:32;;;;;;;12.30;8.67;;;-0.90;99.90;;;;;;5120067;28;20470;-68
2024/01/17 10:42:04;;;;;;;14.47;10.17;;;-0.90;99.90;;;;;;5120858;28;20458;-68
2024/01/17 10:44:32;;;;;;;14.40;9.40;;;-0.90;99.90;;;;;;5120914;28;20484;-68
2024/01/17 10:47:00;;;;;;;12.40;9.50;;;-0.90;99.90;;;;;;5120964;28;20484;-68
2024/01/17 10:49:30;;;;;;;14.77;9.47;;;-0.80;99.90;;;;;;5121093;28;20493;-68
2024/01/17 10:52:03;;;;;;;13.50;9.30;;;-0.80;99.90;;;;;;5120529;28;20443;-68
2024/01/17 10:54:52;;;;;;;17.53;10.20;;;-0.80;99.90;;;;;;5120817;28;20455;-68
2024/01/17 10:57:22;;;;;;;13.47;9.57;;;-0.80;99.90;;;;;;5120794;28;20453;-67
2024/01/17 10:59:51;;;;;;;15.17;10.03;;;-0.80;1.00;;;;;;5120124;28;20458;-67
2024/01/17 11:02:20;;;;;;;12.83;9.73;;;-0.80;99.90;;;;;;5120281;28;20463;-68
2024/01/17 11:04:51;;;;;;;16.87;10.67;;;-0.80;99.90;;;;;;5120686;28;20516;-67
2024/01/17 11:07:20;;;;;;;15.20;11.00;;;-0.80;99.90;;;;;;5120594;28;20490;-67
2024/01/17 11:09:50;;;;;;;13.83;9.83;;;-0.70;1.00;;;;;;5119861;28;20487;-67
2024/01/17 11:12:18;;;;;;;14.37;10.83;;;-0.70;1.00;;;;;;5119782;28;20497;-67
2024/01/17 11:14:48;;;;;;;13.30;10.10;;;-0.70;1.00;;;;;;5119847;28;20467;-67
2024/01/17 11:17:17;;;;;;;13.57;9.87;;;-0.70;1.00;;;;;;5120143;28;20552;-67
2024/01/17 11:19:45;;;;;;;14.37;10.20;;;-0.60;1.00;;;;;;5120181;27;20555;-67
2024/01/17 11:22:14;;;;;;;15.87;9.70;;;-0.60;1.00;;;;;;5118838;28;20437;-66
2024/01/17 11:24:48;;;;;;;15.03;9.80;;;-0.60;1.00;;;;;;5117945;28;20464;-67
2024/01/17 11:27:25;;;;;;;13.60;8.97;;;-0.50;1.00;;;;;;5118589;27;20468;-66
2024/01/17 11:30:06;;;;;;;12.57;9.17;;;-0.50;1.00;;;;;;5118496;28;20787;-66
2024/01/17 11:32:48;;;;;;;12.63;9.70;;;-0.50;1.00;;;;;;5118450;28;20466;-66
2024/01/17 11:35:44;;;;;;;13.40;9.07;;;-0.40;1.00;;;;;;5116548;27;20466;-66
2024/01/17 11:38:13;;;;;;;13.30;9.60;;;-0.40;1.00;;;;;;5118897;28;20455;-66
2024/01/17 11:40:43;;;;;;;16.60;9.67;;;-0.40;1.00;;;;;;5119620;28;20508;-67
2024/01/17 11:43:10;;;;;;;14.87;9.53;;;-0.30;1.00;;;;;;5119356;28;20479;-66
2024/01/17 11:45:39;;;;;;;13.87;9.57;;;-0.30;99.90;;;;;;5119723;28;20418;-66
2024/01/17 11:48:17;;;;;;;12.40;8.07;;;-0.30;1.00;;;;;;5118598;28;20989;-66
2024/01/17 11:50:55;;;;;;;12.10;8.60;;;-0.30;1.00;;;;;;5119581;28;20557;-66
2024/01/17 11:53:25;;;;;;;13.40;9.87;;;-0.30;1.00;;;;;;5119778;28;20466;-65
2024/01/17 11:55:52;;;;;;;13.27;9.20;;;-0.20;1.00;;;;;;5118618;28;20542;-65
2024/01/17 11:58:21;;;;;;;13.33;9.70;;;-0.20;1.00;;;;;;5119036;28;20464;-65
2024/01/17 12:00:54;;;;;;;12.13;8.93;;;-0.10;90.70;;;;;;5119207;28;20456;-65
2024/01/17 12:03:31;;;;;;;14.07;8.90;;;-0.10;99.90;;;;;;5119225;28;20455;-65
2024/01/17 12:05:59;;;;;;;12.73;9.07;;;-0.10;1.00;;;;;;5119031;28;20462;-64
2024/01/17 12:08:27;;;;;;;14.40;11.20;;;-0.10;99.90;;;;;;5119238;28;20590;-65
2024/01/17 12:10:55;;;;;;;12.37;9.60;;;-0.20;1.00;;;;;;5118354;27;20535;-64
2024/01/17 12:13:23;;;;;;;12.10;9.57;;;-0.10;99.90;;;;;;5126015;27;20436;-64
2024/01/17 12:15:55;;;;;;;15.87;10.53;;;-0.10;1.00;;;;;;5124908;27;20513;-64
2024/01/17 12:18:24;;;;;;;13.27;10.00;;;0.00;9.30;;;;;;5121089;27;20475;-64
2024/01/17 12:20:54;;;;;;;14.40;9.83;;;-0.10;1.00;;;;;;5119125;27;20459;-64
2024/01/17 12:23:24;;;;;;;14.33;9.43;;;-0.10;99.90;;;;;;5118862;28;20466;-64
2024/01/17 12:25:53;;;;;;;11.80;9.47;;;-0.10;1.00;;;;;;5117722;28;20839;-64
2024/01/17 12:28:21;;;;;;;14.60;10.50;;;-0.10;1.00;;;;;;5118311;28;20491;-64
2024/01/17 12:31:01;;;;;;;16.30;11.63;;;0.00;99.90;;;;;;5118435;28;20847;-64
2024/01/17 12:33:30;;;;;;;14.03;10.37;;;0.00;79.10;;;;;;5119042;28;20848;-63
2024/01/17 12:36:00;;;;;;;15.00;10.60;;;-0.10;99.90;;;;;;5118396;28;20459;-64
2024/01/17 12:38:30;;;;;;;21.47;14.90;;;-0.10;1.00;;;;;;5118834;28;20456;-64
2024/01/17 12:40:58;;;;;;;15.53;11.37;;;0.00;99.90;;;;;;5118429;28;20528;-64